sensor_id;sensor_type;location;lat;lon;timestamp;pressure;altitude;pressure_sealevel;temperature;humidity
44255;BME280;29933;47.226;15.734;2022-07-05T00:00:03;96432.78;;;17.04;100.00
44255;BME280;29933;47.226;15.734;2022-07-05T00:02:29;96433.19;;;17.02;100.00
44255;BME280;29933;47.226;15.734;2022-07-05T00:04:55;96429.94;;;17.07;100.00
44255;BME280;29933;47.226;15.734;2022-07-05T00:07:21;96431.16;;;17.06;100.00
44255;BME280;29933;47.226;15.734;2022-07-05T00:09:56;96420.34;;;16.99;100.00
44255;BME280;29933;47.226;15.734;2022-07-05T00:12:27;96406.63;;;16.99;100.00
44255;BME280;29933;47.226;15.734;2022-07-05T00:14:54;96401.59;;;16.97;100.00
44255;BME280;29933;47.226;15.734;2022-07-05T00:17:20;96415.72;;;16.96;100.00
44255;BME280;29933;47.226;15.734;2022-07-05T00:19:46;96422.75;;;16.97;100.00
44255;BME280;29933;47.226;15.734;2022-07-05T00:22:12;96430.38;;;17.06;100.00
44255;BME280;29933;47.226;15.734;2022-07-05T00:24:38;96426.72;;;17.12;100.00
44255;BME280;29933;47.226;15.734;2022-07-05T00:27:04;96442.97;;;17.20;100.00
44255;BME280;29933;47.226;15.734;2022-07-05T00:29:33;96471.44;;;17.26;100.00
44255;BME280;29933;47.226;15.734;2022-07-05T00:31:59;96477.66;;;17.30;100.00
44255;BME280;29933;47.226;15.734;2022-07-05T00:34:25;96477.31;;;17.28;100.00
44255;BME280;29933;47.226;15.734;2022-07-05T00:36:51;96477.81;;;17.23;100.00
44255;BME280;29933;47.226;15.734;2022-07-05T00:39:22;96465.13;;;17.12;100.00
44255;BME280;29933;47.226;15.734;2022-07-05T00:41:48;96441.44;;;17.02;100.00
44255;BME280;29933;47.226;15.734;2022-07-05T00:44:16;96408.66;;;16.95;100.00
44255;BME280;29933;47.226;15.734;2022-07-05T00:46:44;96391.19;;;16.89;100.00
44255;BME280;29933;47.226;15.734;2022-07-05T00:49:10;96389.78;;;16.80;100.00
44255;BME280;29933;47.226;15.734;2022-07-05T00:51:38;96398.53;;;16.75;100.00
44255;BME280;29933;47.226;15.734;2022-07-05T00:54:06;96398.84;;;16.77;100.00
44255;BME280;29933;47.226;15.734;2022-07-05T00:56:32;96399.22;;;16.79;100.00
44255;BME280;29933;47.226;15.734;2022-07-05T00:58:58;96407.44;;;16.79;100.00
44255;BME280;29933;47.226;15.734;2022-07-05T01:01:27;96408.31;;;16.76;100.00
44255;BME280;29933;47.226;15.734;2022-07-05T01:03:54;96410.25;;;16.76;100.00
44255;BME280;29933;47.226;15.734;2022-07-05T01:06:20;96408.72;;;16.75;100.00
44255;BME280;29933;47.226;15.734;2022-07-05T01:08:46;96405.91;;;16.78;100.00
44255;BME280;29933;47.226;15.734;2022-07-05T01:11:14;96410.53;;;16.81;100.00
44255;BME280;29933;47.226;15.734;2022-07-05T01:13:41;96397.50;;;16.86;100.00
44255;BME280;29933;47.226;15.734;2022-07-05T01:16:07;96395.13;;;16.88;100.00
44255;BME280;29933;47.226;15.734;2022-07-05T01:18:34;96403.19;;;16.95;100.00
44255;BME280;29933;47.226;15.734;2022-07-05T01:21:02;96403.19;;;16.95;100.00
44255;BME280;29933;47.226;15.734;2022-07-05T01:23:30;96398.56;;;16.92;100.00
44255;BME280;29933;47.226;15.734;2022-07-05T01:26:01;96403.44;;;16.84;100.00
44255;BME280;29933;47.226;15.734;2022-07-05T01:28:29;96404.69;;;16.79;100.00
44255;BME280;29933;47.226;15.734;2022-07-05T01:30:56;96404.25;;;16.81;100.00
44255;BME280;29933;47.226;15.734;2022-07-05T01:33:31;96376.75;;;16.84;100.00
44255;BME280;29933;47.226;15.734;2022-07-05T01:35:58;96368.97;;;16.83;100.00
44255;BME280;29933;47.226;15.734;2022-07-05T01:38:25;96362.63;;;16.86;100.00
44255;BME280;29933;47.226;15.734;2022-07-05T01:40:51;96363.75;;;16.89;100.00
44255;BME280;29933;47.226;15.734;2022-07-05T01:43:22;96360.81;;;16.79;100.00
44255;BME280;29933;47.226;15.734;2022-07-05T01:45:50;96365.34;;;16.70;100.00
44255;BME280;29933;47.226;15.734;2022-07-05T01:48:19;96359.63;;;16.64;100.00
44255;BME280;29933;47.226;15.734;2022-07-05T01:53:22;96368.00;;;16.57;100.00
44255;BME280;29933;47.226;15.734;2022-07-05T01:55:49;96391.56;;;16.54;100.00
44255;BME280;29933;47.226;15.734;2022-07-05T01:58:16;96403.22;;;16.58;100.00
44255;BME280;29933;47.226;15.734;2022-07-05T02:00:52;96394.91;;;16.62;100.00
44255;BME280;29933;47.226;15.734;2022-07-05T02:03:19;96417.44;;;16.70;100.00
44255;BME280;29933;47.226;15.734;2022-07-05T02:05:47;96425.53;;;16.77;100.00
44255;BME280;29933;47.226;15.734;2022-07-05T02:08:14;96447.38;;;16.80;100.00
44255;BME280;29933;47.226;15.734;2022-07-05T02:10:43;96450.06;;;16.84;100.00
44255;BME280;29933;47.226;15.734;2022-07-05T02:13:10;96471.06;;;16.91;100.00
44255;BME280;29933;47.226;15.734;2022-07-05T02:15:40;96469.03;;;16.95;100.00
44255;BME280;29933;47.226;15.734;2022-07-05T02:18:08;96479.16;;;16.98;100.00
44255;BME280;29933;47.226;15.734;2022-07-05T02:20:35;96483.78;;;17.01;100.00
44255;BME280;29933;47.226;15.734;2022-07-05T02:23:03;96482.94;;;17.04;100.00
44255;BME280;29933;47.226;15.734;2022-07-05T02:25:29;96477.38;;;17.08;100.00
44255;BME280;29933;47.226;15.734;2022-07-05T02:27:55;96482.44;;;17.09;100.00
44255;BME280;29933;47.226;15.734;2022-07-05T02:30:21;96475.66;;;17.14;100.00
44255;BME280;29933;47.226;15.734;2022-07-05T02:32:47;96467.00;;;17.15;100.00
44255;BME280;29933;47.226;15.734;2022-07-05T02:35:13;96460.31;;;17.16;100.00
44255;BME280;29933;47.226;15.734;2022-07-05T02:37:39;96451.72;;;17.14;100.00
44255;BME280;29933;47.226;15.734;2022-07-05T02:40:09;96448.31;;;17.10;100.00
44255;BME280;29933;47.226;15.734;2022-07-05T02:42:38;96439.81;;;17.05;100.00
44255;BME280;29933;47.226;15.734;2022-07-05T02:45:04;96427.31;;;17.04;100.00
44255;BME280;29933;47.226;15.734;2022-07-05T02:47:31;96424.13;;;17.05;100.00
44255;BME280;29933;47.226;15.734;2022-07-05T02:50:02;96408.00;;;17.07;100.00
44255;BME280;29933;47.226;15.734;2022-07-05T02:52:28;96393.16;;;17.05;100.00
44255;BME280;29933;47.226;15.734;2022-07-05T02:54:54;96387.34;;;17.03;100.00
44255;BME280;29933;47.226;15.734;2022-07-05T02:57:19;96370.09;;;17.02;100.00
44255;BME280;29933;47.226;15.734;2022-07-05T02:59:45;96354.94;;;16.97;100.00
44255;BME280;29933;47.226;15.734;2022-07-05T03:02:11;96342.00;;;16.98;100.00
44255;BME280;29933;47.226;15.734;2022-07-05T03:04:39;96325.09;;;16.99;100.00
44255;BME280;29933;47.226;15.734;2022-07-05T03:07:06;96299.66;;;16.99;100.00
44255;BME280;29933;47.226;15.734;2022-07-05T03:09:32;96302.81;;;16.97;100.00
44255;BME280;29933;47.226;15.734;2022-07-05T03:11:57;96285.59;;;16.97;100.00
44255;BME280;29933;47.226;15.734;2022-07-05T03:14:23;96276.69;;;16.93;100.00
44255;BME280;29933;47.226;15.734;2022-07-05T03:16:52;96277.25;;;16.84;100.00
44255;BME280;29933;47.226;15.734;2022-07-05T03:19:18;96294.47;;;16.84;100.00
44255;BME280;29933;47.226;15.734;2022-07-05T03:21:45;96308.91;;;16.89;100.00
44255;BME280;29933;47.226;15.734;2022-07-05T03:24:11;96313.44;;;16.95;100.00
44255;BME280;29933;47.226;15.734;2022-07-05T03:26:37;96316.94;;;16.96;100.00
44255;BME280;29933;47.226;15.734;2022-07-05T03:29:03;96322.03;;;16.97;100.00
44255;BME280;29933;47.226;15.734;2022-07-05T03:31:29;96315.41;;;16.95;100.00
44255;BME280;29933;47.226;15.734;2022-07-05T03:33:54;96325.97;;;16.96;100.00
44255;BME280;29933;47.226;15.734;2022-07-05T03:36:22;96320.56;;;16.93;100.00
44255;BME280;29933;47.226;15.734;2022-07-05T03:38:49;96330.00;;;16.92;100.00
44255;BME280;29933;47.226;15.734;2022-07-05T03:41:15;96333.91;;;16.91;100.00
44255;BME280;29933;47.226;15.734;2022-07-05T03:43:43;96336.72;;;16.87;100.00
44255;BME280;29933;47.226;15.734;2022-07-05T03:46:09;96338.28;;;16.88;100.00
44255;BME280;29933;47.226;15.734;2022-07-05T03:48:35;96334.44;;;16.86;100.00
44255;BME280;29933;47.226;15.734;2022-07-05T03:51:01;96346.25;;;16.82;100.00
44255;BME280;29933;47.226;15.734;2022-07-05T03:53:28;96358.00;;;16.83;100.00
44255;BME280;29933;47.226;15.734;2022-07-05T03:55:54;96365.09;;;16.80;100.00
44255;BME280;29933;47.226;15.734;2022-07-05T03:58:28;96375.22;;;16.83;100.00
44255;BME280;29933;47.226;15.734;2022-07-05T04:00:53;96382.94;;;16.89;100.00
44255;BME280;29933;47.226;15.734;2022-07-05T04:03:19;96392.38;;;16.88;100.00
44255;BME280;29933;47.226;15.734;2022-07-05T04:05:45;96399.06;;;16.87;100.00
44255;BME280;29933;47.226;15.734;2022-07-05T04:08:11;96406.03;;;16.91;100.00
44255;BME280;29933;47.226;15.734;2022-07-05T04:10:36;96404.31;;;16.97;100.00
44255;BME280;29933;47.226;15.734;2022-07-05T04:13:02;96412.44;;;17.01;100.00
44255;BME280;29933;47.226;15.734;2022-07-05T04:15:28;96418.66;;;17.05;100.00
44255;BME280;29933;47.226;15.734;2022-07-05T04:17:55;96411.09;;;17.09;100.00
44255;BME280;29933;47.226;15.734;2022-07-05T04:20:57;96412.28;;;17.08;100.00
44255;BME280;29933;47.226;15.734;2022-07-05T04:24:09;96409.53;;;17.08;100.00
44255;BME280;29933;47.226;15.734;2022-07-05T04:26:36;96411.59;;;17.04;100.00
44255;BME280;29933;47.226;15.734;2022-07-05T04:29:02;96405.84;;;16.98;100.00
44255;BME280;29933;47.226;15.734;2022-07-05T04:31:32;96411.78;;;16.97;100.00
44255;BME280;29933;47.226;15.734;2022-07-05T04:34:00;96414.88;;;16.99;100.00
44255;BME280;29933;47.226;15.734;2022-07-05T04:36:26;96406.13;;;17.04;100.00
44255;BME280;29933;47.226;15.734;2022-07-05T04:38:52;96399.97;;;17.00;100.00
44255;BME280;29933;47.226;15.734;2022-07-05T04:41:17;96400.78;;;16.97;100.00
44255;BME280;29933;47.226;15.734;2022-07-05T04:43:43;96397.69;;;16.95;100.00
44255;BME280;29933;47.226;15.734;2022-07-05T04:46:09;96404.47;;;16.90;100.00
44255;BME280;29933;47.226;15.734;2022-07-05T04:48:35;96406.38;;;16.93;100.00
44255;BME280;29933;47.226;15.734;2022-07-05T04:51:00;96396.09;;;16.97;100.00
44255;BME280;29933;47.226;15.734;2022-07-05T04:53:26;96393.75;;;16.96;100.00
44255;BME280;29933;47.226;15.734;2022-07-05T04:55:52;96389.81;;;16.97;100.00
44255;BME280;29933;47.226;15.734;2022-07-05T04:58:18;96393.69;;;16.99;100.00
44255;BME280;29933;47.226;15.734;2022-07-05T05:00:43;96392.91;;;16.99;100.00
44255;BME280;29933;47.226;15.734;2022-07-05T05:03:09;96390.94;;;16.99;100.00
44255;BME280;29933;47.226;15.734;2022-07-05T05:05:35;96395.59;;;17.03;100.00
44255;BME280;29933;47.226;15.734;2022-07-05T05:08:01;96394.28;;;17.07;100.00
44255;BME280;29933;47.226;15.734;2022-07-05T05:10:27;96391.88;;;17.09;100.00
44255;BME280;29933;47.226;15.734;2022-07-05T05:15:34;96395.56;;;17.19;100.00
44255;BME280;29933;47.226;15.734;2022-07-05T05:18:00;96403.19;;;17.28;100.00
44255;BME280;29933;47.226;15.734;2022-07-05T05:20:26;96398.28;;;17.36;100.00
44255;BME280;29933;47.226;15.734;2022-07-05T05:22:52;96393.38;;;17.43;100.00
44255;BME280;29933;47.226;15.734;2022-07-05T05:25:17;96391.00;;;17.45;100.00
44255;BME280;29933;47.226;15.734;2022-07-05T05:27:45;96389.53;;;17.41;100.00
44255;BME280;29933;47.226;15.734;2022-07-05T05:30:13;96386.47;;;17.39;100.00
44255;BME280;29933;47.226;15.734;2022-07-05T05:32:39;96387.22;;;17.39;100.00
44255;BME280;29933;47.226;15.734;2022-07-05T05:35:06;96390.31;;;17.41;100.00
44255;BME280;29933;47.226;15.734;2022-07-05T05:37:45;96385.84;;;17.47;100.00
44255;BME280;29933;47.226;15.734;2022-07-05T05:40:11;96390.91;;;17.49;100.00
44255;BME280;29933;47.226;15.734;2022-07-05T05:42:37;96394.09;;;17.47;100.00
44255;BME280;29933;47.226;15.734;2022-07-05T05:45:04;96394.94;;;17.44;100.00
44255;BME280;29933;47.226;15.734;2022-07-05T05:47:32;96389.09;;;17.42;100.00
44255;BME280;29933;47.226;15.734;2022-07-05T05:49:58;96389.22;;;17.39;100.00
44255;BME280;29933;47.226;15.734;2022-07-05T05:52:24;96389.97;;;17.39;100.00
44255;BME280;29933;47.226;15.734;2022-07-05T05:54:50;96381.56;;;17.46;100.00
44255;BME280;29933;47.226;15.734;2022-07-05T05:57:15;96385.63;;;17.55;100.00
44255;BME280;29933;47.226;15.734;2022-07-05T05:59:46;96385.81;;;17.64;100.00
44255;BME280;29933;47.226;15.734;2022-07-05T06:02:22;96393.41;;;17.73;100.00
44255;BME280;29933;47.226;15.734;2022-07-05T06:04:48;96388.50;;;17.80;100.00
44255;BME280;29933;47.226;15.734;2022-07-05T06:07:15;96388.31;;;17.88;100.00
44255;BME280;29933;47.226;15.734;2022-07-05T06:09:40;96399.59;;;17.90;100.00
44255;BME280;29933;47.226;15.734;2022-07-05T06:12:06;96395.66;;;17.91;100.00
44255;BME280;29933;47.226;15.734;2022-07-05T06:14:32;96399.78;;;17.99;100.00
44255;BME280;29933;47.226;15.734;2022-07-05T06:16:58;96397.41;;;18.01;100.00
44255;BME280;29933;47.226;15.734;2022-07-05T06:19:24;96394.19;;;18.03;100.00
44255;BME280;29933;47.226;15.734;2022-07-05T06:21:50;96405.66;;;18.14;100.00
44255;BME280;29933;47.226;15.734;2022-07-05T06:24:16;96400.19;;;18.27;100.00
44255;BME280;29933;47.226;15.734;2022-07-05T06:26:41;96401.09;;;18.37;100.00
44255;BME280;29933;47.226;15.734;2022-07-05T06:29:07;96402.63;;;18.38;100.00
44255;BME280;29933;47.226;15.734;2022-07-05T06:31:33;96399.44;;;18.39;100.00
44255;BME280;29933;47.226;15.734;2022-07-05T06:33:59;96405.72;;;18.53;100.00
44255;BME280;29933;47.226;15.734;2022-07-05T06:36:25;96404.72;;;18.59;100.00
44255;BME280;29933;47.226;15.734;2022-07-05T06:38:50;96409.25;;;18.66;100.00
44255;BME280;29933;47.226;15.734;2022-07-05T06:41:22;96406.81;;;18.68;100.00
44255;BME280;29933;47.226;15.734;2022-07-05T06:43:50;96401.66;;;18.70;100.00
44255;BME280;29933;47.226;15.734;2022-07-05T06:46:18;96408.03;;;18.67;100.00
44255;BME280;29933;47.226;15.734;2022-07-05T06:48:47;96402.88;;;18.69;100.00
44255;BME280;29933;47.226;15.734;2022-07-05T06:51:19;96408.25;;;18.73;100.00
44255;BME280;29933;47.226;15.734;2022-07-05T06:53:58;96417.06;;;18.81;100.00
44255;BME280;29933;47.226;15.734;2022-07-05T06:56:37;96411.78;;;18.86;100.00
44255;BME280;29933;47.226;15.734;2022-07-05T06:59:15;96419.72;;;18.97;100.00
44255;BME280;29933;47.226;15.734;2022-07-05T07:01:42;96415.88;;;19.07;100.00
44255;BME280;29933;47.226;15.734;2022-07-05T07:04:10;96416.41;;;19.15;100.00
44255;BME280;29933;47.226;15.734;2022-07-05T07:06:37;96416.19;;;19.22;100.00
44255;BME280;29933;47.226;15.734;2022-07-05T07:09:03;96415.94;;;19.30;100.00
44255;BME280;29933;47.226;15.734;2022-07-05T07:11:46;96426.84;;;19.33;100.00
44255;BME280;29933;47.226;15.734;2022-07-05T07:14:16;96423.78;;;19.31;100.00
44255;BME280;29933;47.226;15.734;2022-07-05T07:16:44;96424.34;;;19.26;100.00
44255;BME280;29933;47.226;15.734;2022-07-05T07:19:10;96423.00;;;19.18;100.00
44255;BME280;29933;47.226;15.734;2022-07-05T07:21:36;96429.63;;;19.07;100.00
44255;BME280;29933;47.226;15.734;2022-07-05T07:24:02;96426.31;;;19.00;100.00
44255;BME280;29933;47.226;15.734;2022-07-05T07:26:28;96420.81;;;18.87;100.00
44255;BME280;29933;47.226;15.734;2022-07-05T07:28:54;96421.47;;;18.78;100.00
44255;BME280;29933;47.226;15.734;2022-07-05T07:31:20;96419.38;;;18.69;100.00
44255;BME280;29933;47.226;15.734;2022-07-05T07:33:48;96416.72;;;18.66;100.00
44255;BME280;29933;47.226;15.734;2022-07-05T07:36:14;96418.63;;;18.69;100.00
44255;BME280;29933;47.226;15.734;2022-07-05T07:38:48;96421.56;;;18.74;100.00
44255;BME280;29933;47.226;15.734;2022-07-05T07:41:54;96416.50;;;18.86;100.00
44255;BME280;29933;47.226;15.734;2022-07-05T07:44:20;96407.84;;;19.00;100.00
44255;BME280;29933;47.226;15.734;2022-07-05T07:46:46;96410.47;;;19.17;100.00
44255;BME280;29933;47.226;15.734;2022-07-05T07:49:16;96411.53;;;19.32;100.00
44255;BME280;29933;47.226;15.734;2022-07-05T07:56:47;96421.09;;;19.88;100.00
44255;BME280;29933;47.226;15.734;2022-07-05T07:59:22;96424.25;;;20.00;100.00
44255;BME280;29933;47.226;15.734;2022-07-05T08:01:51;96425.72;;;20.14;100.00
44255;BME280;29933;47.226;15.734;2022-07-05T08:07:32;96425.75;;;20.45;100.00
44255;BME280;29933;47.226;15.734;2022-07-05T08:09:58;96423.53;;;20.62;100.00
44255;BME280;29933;47.226;15.734;2022-07-05T08:12:50;96422.84;;;20.71;100.00
44255;BME280;29933;47.226;15.734;2022-07-05T08:15:25;96419.28;;;20.70;100.00
44255;BME280;29933;47.226;15.734;2022-07-05T08:17:59;96413.84;;;20.80;100.00
44255;BME280;29933;47.226;15.734;2022-07-05T08:20:53;96409.59;;;20.97;100.00
44255;BME280;29933;47.226;15.734;2022-07-05T08:23:42;96413.09;;;20.89;100.00
44255;BME280;29933;47.226;15.734;2022-07-05T08:26:16;96404.56;;;21.05;100.00
44255;BME280;29933;47.226;15.734;2022-07-05T08:28:45;96416.19;;;21.00;100.00
44255;BME280;29933;47.226;15.734;2022-07-05T08:31:11;96412.66;;;20.99;100.00
44255;BME280;29933;47.226;15.734;2022-07-05T08:33:56;96415.75;;;21.01;100.00
44255;BME280;29933;47.226;15.734;2022-07-05T08:36:28;96416.94;;;20.91;100.00
44255;BME280;29933;47.226;15.734;2022-07-05T08:38:56;96412.16;;;20.82;100.00
44255;BME280;29933;47.226;15.734;2022-07-05T08:47:02;96410.69;;;20.68;100.00
44255;BME280;29933;47.226;15.734;2022-07-05T08:52:25;96418.41;;;20.51;100.00
44255;BME280;29933;47.226;15.734;2022-07-05T09:15:45;96435.75;;;21.24;100.00
44255;BME280;29933;47.226;15.734;2022-07-05T09:22:09;96430.31;;;21.61;100.00
44255;BME280;29933;47.226;15.734;2022-07-05T09:24:52;96433.41;;;21.73;100.00
44255;BME280;29933;47.226;15.734;2022-07-05T09:27:25;96437.41;;;21.81;100.00
44255;BME280;29933;47.226;15.734;2022-07-05T09:29:54;96445.22;;;21.82;100.00
44255;BME280;29933;47.226;15.734;2022-07-05T09:32:28;96440.03;;;21.84;100.00
44255;BME280;29933;47.226;15.734;2022-07-05T09:35:20;96441.84;;;21.78;100.00
44255;BME280;29933;47.226;15.734;2022-07-05T09:37:59;96449.97;;;21.73;100.00
44255;BME280;29933;47.226;15.734;2022-07-05T09:40:59;96438.91;;;21.73;100.00
44255;BME280;29933;47.226;15.734;2022-07-05T09:49:25;96446.28;;;21.57;100.00
44255;BME280;29933;47.226;15.734;2022-07-05T09:51:57;96444.69;;;21.47;100.00
44255;BME280;29933;47.226;15.734;2022-07-05T09:54:33;96458.97;;;21.45;100.00
44255;BME280;29933;47.226;15.734;2022-07-05T09:57:28;96449.94;;;21.54;100.00
44255;BME280;29933;47.226;15.734;2022-07-05T10:00:06;96451.97;;;21.63;100.00
44255;BME280;29933;47.226;15.734;2022-07-05T10:02:45;96450.28;;;21.84;100.00
44255;BME280;29933;47.226;15.734;2022-07-05T10:11:57;96441.50;;;22.51;100.00
44255;BME280;29933;47.226;15.734;2022-07-05T10:14:28;96447.75;;;22.70;100.00
44255;BME280;29933;47.226;15.734;2022-07-05T10:17:02;96450.91;;;22.87;100.00
44255;BME280;29933;47.226;15.734;2022-07-05T10:19:50;96445.34;;;22.96;100.00
44255;BME280;29933;47.226;15.734;2022-07-05T10:25:35;96448.41;;;22.98;100.00
44255;BME280;29933;47.226;15.734;2022-07-05T10:28:32;96444.94;;;22.79;100.00
44255;BME280;29933;47.226;15.734;2022-07-05T10:31:26;96449.91;;;22.75;100.00
44255;BME280;29933;47.226;15.734;2022-07-05T10:39:18;96448.84;;;22.63;100.00
44255;BME280;29933;47.226;15.734;2022-07-05T10:47:10;96448.88;;;22.44;100.00
44255;BME280;29933;47.226;15.734;2022-07-05T10:52:24;96450.13;;;22.25;100.00
44255;BME280;29933;47.226;15.734;2022-07-05T10:55:22;96452.13;;;22.15;100.00
44255;BME280;29933;47.226;15.734;2022-07-05T11:11:27;96457.13;;;22.63;100.00
44255;BME280;29933;47.226;15.734;2022-07-05T11:43:09;96422.34;;;23.14;98.93
44255;BME280;29933;47.226;15.734;2022-07-05T11:45:37;96422.16;;;23.51;100.00
44255;BME280;29933;47.226;15.734;2022-07-05T11:48:04;96412.09;;;23.78;100.00
44255;BME280;29933;47.226;15.734;2022-07-05T11:53:36;96405.03;;;24.46;90.30
44255;BME280;29933;47.226;15.734;2022-07-05T11:59:27;96400.22;;;24.32;88.69
44255;BME280;29933;47.226;15.734;2022-07-05T12:05:21;96400.72;;;24.30;92.80
44255;BME280;29933;47.226;15.734;2022-07-05T12:08:44;96399.00;;;24.33;89.69
44255;BME280;29933;47.226;15.734;2022-07-05T12:14:08;96395.16;;;24.30;89.52
44255;BME280;29933;47.226;15.734;2022-07-05T12:16:37;96390.59;;;24.27;84.79
44255;BME280;29933;47.226;15.734;2022-07-05T12:37:24;96399.97;;;24.74;81.85
44255;BME280;29933;47.226;15.734;2022-07-05T12:40:36;96399.66;;;24.57;78.06
44255;BME280;29933;47.226;15.734;2022-07-05T12:46:02;96396.22;;;24.33;75.48
44255;BME280;29933;47.226;15.734;2022-07-05T12:59:21;96405.31;;;24.18;77.65
44255;BME280;29933;47.226;15.734;2022-07-05T13:04:17;96399.75;;;24.18;79.70
44255;BME280;29933;47.226;15.734;2022-07-05T13:29:24;96410.28;;;24.44;62.44
44255;BME280;29933;47.226;15.734;2022-07-05T13:32:42;96408.97;;;24.54;65.82
44255;BME280;29933;47.226;15.734;2022-07-05T13:35:24;96412.19;;;24.68;61.94
44255;BME280;29933;47.226;15.734;2022-07-05T13:40:34;96411.25;;;24.71;62.93
44255;BME280;29933;47.226;15.734;2022-07-05T13:43:11;96404.03;;;24.64;59.90
44255;BME280;29933;47.226;15.734;2022-07-05T13:51:50;96382.47;;;25.25;57.51
44255;BME280;29933;47.226;15.734;2022-07-05T14:05:18;96393.44;;;25.34;53.42
44255;BME280;29933;47.226;15.734;2022-07-05T14:14:16;96383.16;;;25.19;55.41
44255;BME280;29933;47.226;15.734;2022-07-05T14:17:11;96375.59;;;25.20;53.51
44255;BME280;29933;47.226;15.734;2022-07-05T14:23:16;96372.00;;;25.34;54.15
44255;BME280;29933;47.226;15.734;2022-07-05T14:35:01;96364.00;;;25.63;53.18
44255;BME280;29933;47.226;15.734;2022-07-05T18:03:41;96451.97;;;21.63;69.67
44255;BME280;29933;47.226;15.734;2022-07-05T18:06:44;96452.09;;;21.59;70.74
44255;BME280;29933;47.226;15.734;2022-07-05T18:09:13;96465.63;;;21.57;77.59
44255;BME280;29933;47.226;15.734;2022-07-05T18:11:40;96464.97;;;21.53;78.03
44255;BME280;29933;47.226;15.734;2022-07-05T18:14:12;96468.19;;;21.42;80.15
44255;BME280;29933;47.226;15.734;2022-07-05T18:16:42;96466.31;;;21.30;83.09
44255;BME280;29933;47.226;15.734;2022-07-05T18:19:11;96470.09;;;21.14;84.28
44255;BME280;29933;47.226;15.734;2022-07-05T18:21:41;96468.19;;;21.01;84.39
44255;BME280;29933;47.226;15.734;2022-07-05T18:24:19;96464.28;;;20.90;88.23
44255;BME280;29933;47.226;15.734;2022-07-05T18:26:46;96468.31;;;20.66;83.81
44255;BME280;29933;47.226;15.734;2022-07-05T18:29:12;96466.06;;;20.52;85.63
44255;BME280;29933;47.226;15.734;2022-07-05T18:31:38;96460.19;;;20.41;91.01
44255;BME280;29933;47.226;15.734;2022-07-05T18:34:09;96464.69;;;20.25;88.24
44255;BME280;29933;47.226;15.734;2022-07-05T18:36:34;96474.25;;;20.11;85.76
44255;BME280;29933;47.226;15.734;2022-07-05T18:39:26;96473.91;;;20.09;91.88
44255;BME280;29933;47.226;15.734;2022-07-05T18:41:53;96477.56;;;20.06;89.01
44255;BME280;29933;47.226;15.734;2022-07-05T18:44:24;96481.53;;;20.05;93.59
44255;BME280;29933;47.226;15.734;2022-07-05T18:47:02;96475.19;;;19.95;96.10
44255;BME280;29933;47.226;15.734;2022-07-05T18:49:34;96465.06;;;19.79;91.33
44255;BME280;29933;47.226;15.734;2022-07-05T18:52:10;96473.56;;;19.72;92.23
44255;BME280;29933;47.226;15.734;2022-07-05T18:54:36;96470.28;;;19.64;94.20
44255;BME280;29933;47.226;15.734;2022-07-05T18:57:05;96473.19;;;19.48;99.47
44255;BME280;29933;47.226;15.734;2022-07-05T18:59:39;96468.38;;;19.26;100.00
44255;BME280;29933;47.226;15.734;2022-07-05T19:02:05;96472.22;;;19.16;96.67
44255;BME280;29933;47.226;15.734;2022-07-05T19:04:42;96470.34;;;19.00;100.00
44255;BME280;29933;47.226;15.734;2022-07-05T19:07:10;96472.78;;;18.85;94.71
44255;BME280;29933;47.226;15.734;2022-07-05T19:10:01;96472.28;;;18.73;100.00
44255;BME280;29933;47.226;15.734;2022-07-05T19:12:45;96482.63;;;18.56;94.56
44255;BME280;29933;47.226;15.734;2022-07-05T19:15:30;96488.56;;;18.55;100.00
44255;BME280;29933;47.226;15.734;2022-07-05T19:18:18;96488.31;;;18.36;92.32
44255;BME280;29933;47.226;15.734;2022-07-05T19:20:45;96496.00;;;18.41;99.60
44255;BME280;29933;47.226;15.734;2022-07-05T19:23:12;96496.09;;;18.38;100.00
44255;BME280;29933;47.226;15.734;2022-07-05T19:25:38;96493.19;;;18.28;99.87
44255;BME280;29933;47.226;15.734;2022-07-05T19:28:25;96495.72;;;18.23;100.00
44255;BME280;29933;47.226;15.734;2022-07-05T19:30:51;96496.78;;;18.12;99.90
44255;BME280;29933;47.226;15.734;2022-07-05T19:33:17;96495.53;;;18.01;100.00
44255;BME280;29933;47.226;15.734;2022-07-05T19:35:43;96492.34;;;17.86;100.00
44255;BME280;29933;47.226;15.734;2022-07-05T19:38:29;96489.78;;;17.78;100.00
44255;BME280;29933;47.226;15.734;2022-07-05T19:40:54;96487.56;;;17.73;99.67
44255;BME280;29933;47.226;15.734;2022-07-05T19:44:00;96499.34;;;17.74;100.00
44255;BME280;29933;47.226;15.734;2022-07-05T19:49:03;96489.31;;;17.51;100.00
44255;BME280;29933;47.226;15.734;2022-07-05T19:51:34;96490.00;;;17.38;100.00
44255;BME280;29933;47.226;15.734;2022-07-05T19:54:00;96493.94;;;17.37;100.00
44255;BME280;29933;47.226;15.734;2022-07-05T19:56:26;96490.84;;;17.35;100.00
44255;BME280;29933;47.226;15.734;2022-07-05T19:58:53;96492.13;;;17.30;100.00
44255;BME280;29933;47.226;15.734;2022-07-05T20:01:32;96483.31;;;17.23;100.00
44255;BME280;29933;47.226;15.734;2022-07-05T20:04:04;96488.09;;;17.19;100.00
44255;BME280;29933;47.226;15.734;2022-07-05T20:08:59;96497.47;;;17.21;100.00
44255;BME280;29933;47.226;15.734;2022-07-05T20:11:25;96509.34;;;17.14;100.00
44255;BME280;29933;47.226;15.734;2022-07-05T20:14:00;96510.72;;;17.06;100.00
44255;BME280;29933;47.226;15.734;2022-07-05T20:16:28;96514.38;;;16.99;100.00
44255;BME280;29933;47.226;15.734;2022-07-05T20:18:54;96510.59;;;16.93;100.00